createdAt,value
2018-07-20T00:00:23.152Z,0.00
2018-07-20T00:01:23.111Z,0.00
2018-07-20T00:02:23.124Z,0.00
2018-07-20T00:03:23.107Z,0.00
2018-07-20T00:04:23.105Z,0.00
2018-07-20T00:05:23.102Z,0.00
2018-07-20T00:06:23.106Z,0.00
2018-07-20T00:07:23.106Z,0.00
2018-07-20T00:08:23.099Z,0.00
2018-07-20T00:09:23.097Z,0.00
2018-07-20T00:10:23.098Z,0.00
2018-07-20T00:11:23.091Z,0.00
2018-07-20T00:12:23.091Z,0.00
2018-07-20T00:13:23.089Z,0.00
2018-07-20T00:14:23.092Z,0.00
2018-07-20T00:15:23.092Z,0.00
2018-07-20T00:16:23.085Z,0.00
2018-07-20T00:17:23.080Z,0.00
2018-07-20T00:18:23.081Z,0.10
2018-07-20T00:19:23.077Z,0.00
2018-07-20T00:20:23.076Z,0.00
2018-07-20T00:21:23.082Z,0.00
2018-07-20T00:22:23.075Z,0.00
2018-07-20T00:23:23.070Z,0.00
2018-07-20T00:24:23.072Z,0.00
2018-07-20T00:25:23.065Z,0.00
2018-07-20T00:26:23.068Z,0.00
2018-07-20T00:27:23.065Z,0.00
2018-07-20T00:28:23.073Z,0.00
2018-07-20T00:29:23.064Z,0.00
2018-07-20T00:30:23.075Z,0.00
2018-07-20T00:31:23.057Z,0.00
2018-07-20T00:32:23.055Z,0.10
2018-07-20T00:33:23.051Z,0.10
2018-07-20T00:34:23.050Z,0.00
2018-07-20T00:35:23.051Z,0.00
2018-07-20T00:36:23.051Z,0.00
2018-07-20T00:37:23.046Z,0.00
2018-07-20T00:38:23.047Z,0.00
2018-07-20T00:39:23.044Z,0.00
2018-07-20T00:40:23.041Z,0.00
2018-07-20T00:41:23.044Z,0.00
2018-07-20T00:42:23.039Z,0.00
2018-07-20T00:43:23.063Z,0.00
2018-07-20T00:44:23.033Z,0.00
2018-07-20T00:45:23.028Z,0.00
2018-07-20T00:46:23.055Z,0.00
2018-07-20T00:47:23.026Z,0.00
2018-07-20T00:48:23.026Z,0.00
2018-07-20T00:49:23.021Z,0.00
2018-07-20T00:50:23.025Z,0.00
2018-07-20T00:51:23.020Z,0.00
2018-07-20T00:52:23.016Z,0.00
2018-07-20T00:53:23.017Z,0.00
2018-07-20T00:54:23.014Z,0.00
2018-07-20T00:55:23.008Z,0.10
2018-07-20T00:56:23.015Z,0.00
2018-07-20T00:57:23.005Z,0.00
2018-07-20T00:58:23.007Z,0.00
2018-07-20T00:59:23.005Z,0.00
2018-07-20T01:00:22.998Z,0.00
2018-07-20T01:01:22.997Z,0.00
2018-07-20T01:02:22.998Z,0.00
2018-07-20T01:03:23.005Z,0.00
2018-07-20T01:04:22.995Z,0.00
2018-07-20T01:05:23.017Z,0.00
2018-07-20T01:06:22.991Z,0.00
2018-07-20T01:07:22.987Z,0.00
2018-07-20T01:08:22.983Z,0.00
2018-07-20T01:09:22.981Z,0.00
2018-07-20T01:10:22.978Z,0.00
2018-07-20T01:11:22.983Z,0.00
2018-07-20T01:12:22.980Z,0.10
2018-07-20T01:13:22.977Z,0.00
2018-07-20T01:14:22.975Z,0.00
2018-07-20T01:15:22.968Z,0.10
2018-07-20T01:16:22.968Z,0.00
2018-07-20T01:17:22.968Z,0.00
2018-07-20T01:18:22.963Z,0.00
2018-07-20T01:19:22.970Z,0.00
2018-07-20T01:20:22.960Z,0.00
2018-07-20T01:21:22.962Z,0.00
2018-07-20T01:22:22.955Z,0.00
2018-07-20T01:23:22.951Z,0.00
2018-07-20T01:24:22.952Z,0.00
2018-07-20T01:25:22.953Z,0.00
2018-07-20T01:26:22.948Z,0.00
2018-07-20T01:27:22.943Z,0.00
2018-07-20T01:28:22.944Z,0.00
2018-07-20T01:29:22.936Z,0.00
2018-07-20T01:30:22.931Z,0.00
2018-07-20T01:31:22.932Z,0.00
2018-07-20T01:32:22.928Z,0.00
2018-07-20T01:33:22.930Z,0.00
2018-07-20T01:34:22.926Z,0.10
2018-07-20T01:35:22.924Z,0.00
2018-07-20T01:36:22.923Z,0.00
2018-07-20T01:37:22.917Z,0.00
2018-07-20T01:38:22.918Z,0.00
2018-07-20T01:39:22.917Z,0.00
2018-07-20T01:40:22.916Z,0.10
2018-07-20T01:41:22.911Z,0.10
2018-07-20T01:42:22.906Z,0.00
2018-07-20T01:43:22.909Z,0.00
2018-07-20T01:44:22.903Z,0.00
2018-07-20T01:45:22.905Z,0.00
2018-07-20T01:46:22.898Z,0.00
2018-07-20T01:47:22.896Z,0.00
2018-07-20T01:48:22.894Z,0.10
2018-07-20T01:49:22.889Z,0.00
2018-07-20T01:50:22.886Z,0.00
2018-07-20T01:51:22.891Z,0.00
2018-07-20T01:52:22.921Z,0.00
2018-07-20T01:53:22.884Z,0.00
2018-07-20T01:54:22.877Z,0.00
2018-07-20T01:55:22.898Z,0.00
2018-07-20T01:56:22.877Z,0.00
2018-07-20T01:57:22.870Z,0.00
2018-07-20T01:58:22.870Z,0.10
2018-07-20T01:59:22.865Z,0.00
2018-07-20T02:00:22.863Z,0.00
2018-07-20T02:01:22.877Z,0.00
2018-07-20T02:02:22.863Z,0.00
2018-07-20T02:03:22.855Z,0.00
2018-07-20T02:04:43.881Z,0.00
2018-07-20T02:05:22.853Z,0.00
2018-07-20T02:06:22.844Z,0.00
2018-07-20T02:07:22.841Z,0.00
2018-07-20T02:08:22.841Z,0.00
2018-07-20T02:09:22.847Z,0.00
2018-07-20T02:10:22.837Z,0.00
2018-07-20T02:11:22.833Z,0.00
2018-07-20T02:12:22.830Z,0.10
2018-07-20T02:13:22.828Z,0.00
2018-07-20T02:14:22.830Z,0.00
2018-07-20T02:15:22.824Z,0.10
2018-07-20T02:16:22.825Z,0.10
2018-07-20T02:17:23.423Z,0.00
2018-07-20T02:18:22.816Z,0.10
2018-07-20T02:19:22.812Z,0.00
2018-07-20T02:20:22.828Z,0.10
2018-07-20T02:21:22.843Z,0.00
2018-07-20T02:22:22.806Z,0.00
2018-07-20T02:23:22.836Z,0.10
2018-07-20T02:24:22.810Z,0.10
2018-07-20T02:25:22.808Z,0.00
2018-07-20T02:26:22.795Z,0.10
2018-07-20T02:27:22.790Z,0.00
2018-07-20T02:28:22.795Z,0.10
2018-07-20T02:29:22.815Z,0.00
2018-07-20T02:30:22.785Z,0.10
2018-07-20T02:31:22.786Z,0.10
2018-07-20T02:32:22.783Z,0.10
2018-07-20T02:33:22.780Z,0.00
2018-07-20T02:34:22.771Z,0.10
2018-07-20T02:35:22.770Z,0.00
2018-07-20T02:36:22.770Z,0.10
2018-07-20T02:37:22.765Z,0.00
2018-07-20T02:38:22.762Z,0.00
2018-07-20T02:39:22.758Z,0.00
2018-07-20T02:40:22.759Z,0.10
2018-07-20T02:41:22.754Z,0.10
2018-07-20T02:42:22.750Z,0.10
2018-07-20T02:43:22.759Z,0.10
2018-07-20T02:44:22.747Z,0.10
2018-07-20T02:45:22.744Z,0.10
2018-07-20T02:46:22.740Z,0.10
2018-07-20T02:47:22.737Z,0.10
2018-07-20T02:48:22.733Z,0.10
2018-07-20T02:49:22.731Z,0.10
2018-07-20T02:50:22.727Z,0.00
2018-07-20T02:51:22.727Z,0.00
2018-07-20T02:52:22.721Z,0.00
2018-07-20T02:53:22.719Z,0.00
2018-07-20T02:54:22.716Z,0.10
2018-07-20T02:55:22.717Z,0.00
2018-07-20T02:56:22.712Z,0.10
2018-07-20T02:57:22.713Z,0.00
2018-07-20T02:58:22.707Z,0.00
2018-07-20T02:59:22.714Z,0.00
2018-07-20T03:00:22.704Z,0.00
2018-07-20T03:01:22.698Z,0.00
2018-07-20T03:02:22.696Z,0.00
2018-07-20T03:03:22.690Z,0.00
2018-07-20T03:04:22.694Z,0.00
2018-07-20T03:05:22.719Z,0.00
2018-07-20T03:06:22.692Z,0.10
2018-07-20T03:07:22.683Z,0.00
2018-07-20T03:08:22.681Z,0.00
2018-07-20T03:09:22.743Z,0.00
2018-07-20T03:10:22.674Z,0.00
2018-07-20T03:11:22.669Z,0.00
2018-07-20T03:12:22.671Z,0.10
2018-07-20T03:13:22.668Z,0.10
2018-07-20T03:14:22.669Z,0.00
2018-07-20T03:15:22.660Z,0.10
2018-07-20T03:16:22.659Z,0.00
2018-07-20T03:17:22.660Z,0.10
2018-07-20T03:18:22.651Z,0.10
2018-07-20T03:19:22.662Z,0.10
2018-07-20T03:20:22.647Z,0.00
2018-07-20T03:21:22.645Z,0.10
2018-07-20T03:22:22.638Z,0.00
2018-07-20T03:23:22.643Z,0.00
2018-07-20T03:24:22.633Z,0.10
2018-07-20T03:25:22.632Z,0.10
2018-07-20T03:26:22.629Z,0.00
2018-07-20T03:27:22.628Z,0.00
2018-07-20T03:28:22.627Z,0.00
2018-07-20T03:29:22.624Z,0.00
2018-07-20T03:30:22.616Z,0.00
2018-07-20T03:31:22.615Z,0.10
2018-07-20T03:32:22.611Z,0.10
2018-07-20T03:33:22.607Z,0.00
2018-07-20T03:34:22.607Z,0.00
2018-07-20T03:35:22.605Z,0.00
2018-07-20T03:36:22.597Z,0.00
2018-07-20T03:37:22.600Z,0.10
2018-07-20T03:38:22.595Z,0.10
2018-07-20T03:39:22.595Z,0.10
2018-07-20T03:40:22.588Z,0.00
2018-07-20T03:41:22.604Z,0.00
2018-07-20T03:42:22.582Z,0.10
2018-07-20T03:43:22.582Z,0.00
2018-07-20T03:44:22.579Z,0.10
2018-07-20T03:45:22.575Z,0.00
2018-07-20T03:46:22.568Z,0.00
2018-07-20T03:47:22.571Z,0.00
2018-07-20T03:48:22.585Z,0.00
2018-07-20T03:49:22.568Z,0.10
2018-07-20T03:50:22.562Z,0.00
2018-07-20T03:51:22.557Z,0.00
2018-07-20T03:52:22.552Z,0.00
2018-07-20T03:53:22.550Z,0.00
2018-07-20T03:54:22.545Z,0.00
2018-07-20T03:55:22.550Z,0.00
2018-07-20T03:56:22.544Z,0.00
2018-07-20T03:57:22.543Z,0.00
2018-07-20T03:58:22.536Z,0.00
2018-07-20T03:59:22.534Z,0.10
2018-07-20T04:00:22.531Z,0.00
2018-07-20T04:01:22.530Z,0.10
2018-07-20T04:02:22.562Z,0.00
2018-07-20T04:03:22.525Z,0.10
2018-07-20T04:04:22.521Z,0.00
2018-07-20T04:05:22.516Z,0.00
2018-07-20T04:06:22.515Z,0.10
2018-07-20T04:07:22.510Z,0.00
2018-07-20T04:08:22.513Z,0.10
2018-07-20T04:09:22.517Z,0.00
2018-07-20T04:10:22.531Z,0.00
2018-07-20T04:11:22.503Z,0.10
2018-07-20T04:12:22.499Z,0.10
2018-07-20T04:13:22.497Z,0.10
2018-07-20T04:14:22.490Z,0.10
2018-07-20T04:15:22.486Z,0.00
2018-07-20T04:16:22.486Z,0.00
2018-07-20T04:17:22.485Z,0.10
2018-07-20T04:18:22.480Z,0.00
2018-07-20T04:19:22.477Z,0.10
2018-07-20T04:20:22.475Z,0.10
2018-07-20T04:21:22.470Z,0.00
2018-07-20T04:22:22.479Z,0.00
2018-07-20T04:23:22.468Z,0.00
2018-07-20T04:24:22.463Z,0.00
2018-07-20T04:25:22.467Z,0.10
2018-07-20T04:26:22.454Z,0.10
2018-07-20T04:27:22.457Z,0.00
2018-07-20T04:28:22.454Z,0.00
2018-07-20T04:29:22.463Z,0.10
2018-07-20T04:30:22.444Z,0.10
2018-07-20T04:31:22.447Z,0.00
2018-07-20T04:32:22.441Z,0.00
2018-07-20T04:33:22.440Z,0.10
2018-07-20T04:34:22.434Z,0.10
2018-07-20T04:35:22.430Z,0.10
2018-07-20T04:36:22.478Z,0.10
2018-07-20T04:37:22.427Z,0.10
2018-07-20T04:38:22.426Z,0.00
2018-07-20T04:39:22.423Z,0.00
2018-07-20T04:40:22.423Z,0.00
2018-07-20T04:41:22.414Z,0.00
2018-07-20T04:42:22.411Z,0.10
2018-07-20T04:43:22.415Z,0.10
2018-07-20T04:44:22.407Z,0.00
2018-07-20T04:45:22.406Z,0.00
2018-07-20T04:46:22.405Z,0.00
2018-07-20T04:47:22.406Z,0.10
2018-07-20T04:48:22.404Z,0.00
2018-07-20T04:49:22.401Z,0.00
2018-07-20T04:50:22.404Z,0.10
2018-07-20T04:51:22.390Z,0.10
2018-07-20T04:52:22.396Z,0.00
2018-07-20T04:53:22.389Z,0.00
2018-07-20T04:54:22.382Z,0.00
2018-07-20T04:55:22.401Z,0.00
2018-07-20T04:56:22.379Z,0.10
2018-07-20T04:57:22.425Z,0.00
2018-07-20T04:58:22.388Z,0.00
2018-07-20T04:59:22.371Z,0.00
2018-07-20T05:00:22.372Z,0.00
2018-07-20T05:01:22.379Z,0.00
2018-07-20T05:02:22.366Z,0.00
2018-07-20T05:03:22.360Z,0.00
2018-07-20T05:04:22.353Z,0.00
2018-07-20T05:05:22.362Z,0.00
2018-07-20T05:06:22.350Z,0.00
2018-07-20T05:07:22.349Z,0.00
2018-07-20T05:08:22.349Z,0.00
2018-07-20T05:09:22.349Z,0.00
2018-07-20T05:10:22.347Z,0.10
2018-07-20T05:11:22.375Z,0.00
2018-07-20T05:12:22.993Z,0.00
2018-07-20T05:13:22.375Z,0.10
2018-07-20T05:14:22.334Z,0.10
2018-07-20T05:15:22.328Z,0.00
2018-07-20T05:16:22.333Z,0.00
2018-07-20T05:17:22.328Z,0.10
2018-07-20T05:18:22.320Z,0.00
2018-07-20T05:19:22.317Z,0.00
2018-07-20T05:20:22.323Z,0.00
2018-07-20T05:21:22.316Z,0.00
2018-07-20T05:22:22.312Z,0.10
2018-07-20T05:23:22.308Z,0.00
2018-07-20T05:24:22.307Z,0.10
2018-07-20T05:25:22.305Z,0.10
2018-07-20T05:26:22.302Z,0.00
2018-07-20T05:27:22.296Z,0.00
2018-07-20T05:28:22.306Z,0.00
2018-07-20T05:29:22.301Z,0.00
2018-07-20T05:30:22.294Z,0.00
2018-07-20T05:31:22.293Z,0.00
2018-07-20T05:32:22.287Z,0.00
2018-07-20T05:33:22.285Z,0.00
2018-07-20T05:34:22.283Z,0.00
2018-07-20T05:35:22.294Z,0.10
2018-07-20T05:36:22.284Z,0.00
2018-07-20T05:37:22.282Z,0.00
2018-07-20T05:38:22.280Z,0.00
2018-07-20T05:39:22.280Z,0.00
2018-07-20T05:40:22.279Z,0.00
2018-07-20T05:41:22.277Z,0.00
2018-07-20T05:42:22.273Z,0.00
2018-07-20T05:43:22.266Z,0.00
2018-07-20T05:44:22.291Z,0.00
2018-07-20T05:45:22.268Z,0.00
2018-07-20T05:46:22.263Z,0.00
2018-07-20T05:47:22.275Z,0.00
2018-07-20T05:48:22.286Z,0.00
2018-07-20T05:49:22.261Z,0.00
2018-07-20T05:50:22.257Z,0.00
2018-07-20T05:51:22.259Z,0.00
2018-07-20T05:52:22.260Z,0.00
2018-07-20T05:53:22.290Z,0.00
2018-07-20T05:54:22.252Z,0.00
2018-07-20T05:55:22.250Z,0.00
2018-07-20T05:56:22.252Z,0.00
2018-07-20T05:57:22.253Z,0.00
2018-07-20T05:58:22.262Z,0.00
2018-07-20T05:59:22.262Z,0.00
2018-07-20T06:00:22.247Z,0.00
2018-07-20T06:01:22.544Z,0.00
2018-07-20T06:02:22.251Z,0.00
2018-07-20T06:03:22.263Z,0.00
2018-07-20T06:04:22.253Z,0.00
2018-07-20T06:05:22.254Z,0.00
2018-07-20T06:06:22.250Z,0.00
2018-07-20T06:07:22.254Z,0.00
2018-07-20T06:08:22.250Z,0.00
2018-07-20T06:09:22.252Z,0.00
2018-07-20T06:10:22.263Z,0.00
2018-07-20T06:11:22.253Z,0.00
2018-07-20T06:12:22.261Z,0.00
2018-07-20T06:13:22.277Z,0.00
2018-07-20T06:14:22.252Z,0.00
2018-07-20T06:15:22.277Z,0.00
2018-07-20T06:16:22.287Z,0.00
2018-07-20T06:17:22.268Z,0.00
2018-07-20T06:18:22.258Z,0.00
2018-07-20T06:19:22.261Z,0.00
2018-07-20T06:20:22.259Z,0.00
2018-07-20T06:21:22.261Z,0.00
2018-07-20T06:22:22.265Z,0.00
2018-07-20T06:23:22.264Z,0.00
2018-07-20T06:24:22.264Z,0.00
2018-07-20T06:25:22.265Z,0.00
2018-07-20T06:26:22.267Z,0.00
2018-07-20T06:27:22.272Z,0.00
2018-07-20T06:28:22.267Z,0.00
2018-07-20T06:29:22.266Z,0.00
2018-07-20T06:30:22.272Z,0.00
2018-07-20T06:31:22.270Z,0.00
2018-07-20T06:32:22.285Z,0.00
2018-07-20T06:33:22.285Z,0.00
2018-07-20T06:34:22.280Z,0.00
2018-07-20T06:35:22.279Z,0.00
2018-07-20T06:36:22.281Z,0.00
2018-07-20T06:37:22.280Z,0.00
2018-07-20T06:38:22.290Z,0.00
2018-07-20T06:39:22.291Z,0.00
2018-07-20T06:40:22.286Z,0.00
2018-07-20T06:41:22.287Z,0.00
2018-07-20T06:42:22.291Z,0.00
2018-07-20T06:43:22.294Z,0.00
2018-07-20T06:44:22.292Z,0.00
2018-07-20T06:45:22.303Z,0.00
2018-07-20T06:46:22.297Z,0.00
2018-07-20T06:47:22.296Z,0.00
2018-07-20T06:48:22.299Z,0.00
2018-07-20T06:49:22.302Z,0.00
2018-07-20T06:50:22.300Z,0.00
2018-07-20T06:51:22.303Z,0.00
2018-07-20T06:52:23.048Z,0.00
2018-07-20T06:53:22.308Z,0.00
2018-07-20T06:54:22.312Z,0.00
2018-07-20T06:55:22.314Z,0.00
2018-07-20T06:56:22.313Z,0.00
2018-07-20T06:57:22.316Z,0.00
2018-07-20T06:58:22.318Z,0.00
2018-07-20T06:59:22.318Z,0.00
2018-07-20T07:00:22.317Z,0.00
2018-07-20T07:01:22.323Z,0.00
2018-07-20T07:02:22.322Z,0.00
2018-07-20T07:03:22.327Z,0.00
2018-07-20T07:04:22.329Z,0.00
2018-07-20T07:05:22.336Z,0.00
2018-07-20T07:06:22.341Z,0.00
2018-07-20T07:07:22.337Z,0.00
2018-07-20T07:08:22.342Z,0.00
2018-07-20T07:09:22.346Z,0.00
2018-07-20T07:10:22.342Z,0.00
2018-07-20T07:11:22.346Z,0.00
2018-07-20T07:12:22.351Z,0.00
2018-07-20T07:13:23.065Z,0.00
2018-07-20T07:14:22.363Z,0.00
2018-07-20T07:15:22.355Z,0.00
2018-07-20T07:16:22.365Z,0.00
2018-07-20T07:17:22.366Z,0.00
2018-07-20T07:18:22.374Z,0.00
2018-07-20T07:19:22.371Z,0.00
2018-07-20T07:20:23.071Z,0.00
2018-07-20T07:22:16.132Z,0.00
2018-07-20T07:23:16.069Z,0.00
2018-07-20T07:25:09.916Z,0.00
2018-07-20T07:26:09.601Z,0.00
2018-07-20T07:27:09.573Z,0.00
2018-07-20T07:28:09.580Z,0.00
2018-07-20T07:29:09.624Z,0.00
2018-07-20T07:31:03.287Z,0.10
2018-07-20T07:32:03.256Z,0.00
2018-07-20T07:33:56.864Z,0.00
2018-07-20T07:34:56.852Z,0.00
2018-07-20T07:36:50.581Z,0.00
2018-07-20T07:37:50.541Z,0.10
2018-07-20T07:39:44.155Z,0.10
2018-07-20T07:40:44.144Z,0.10
2018-07-20T07:42:37.827Z,0.10
2018-07-20T07:43:37.814Z,0.10
2018-07-20T07:44:37.811Z,0.10
2018-07-20T07:45:37.807Z,0.10
2018-07-20T07:46:37.823Z,0.10
2018-07-20T07:47:37.841Z,0.10
2018-07-20T07:48:37.822Z,0.10
2018-07-20T07:49:37.834Z,0.10
2018-07-20T07:50:37.832Z,0.10
2018-07-20T07:51:37.838Z,0.10
2018-07-20T07:52:37.868Z,0.10
2018-07-20T07:53:37.851Z,0.10
2018-07-20T07:54:37.857Z,0.10
2018-07-20T07:55:37.864Z,0.10
2018-07-20T07:56:37.865Z,0.20
2018-07-20T07:57:37.874Z,0.10
2018-07-20T07:58:37.889Z,0.10
2018-07-20T07:59:37.885Z,0.10
2018-07-20T08:00:38.587Z,0.20
2018-07-20T08:01:37.898Z,0.20
2018-07-20T08:02:38.596Z,0.20
2018-07-20T08:03:37.977Z,0.20
2018-07-20T08:04:37.945Z,0.30
2018-07-20T08:05:37.929Z,0.20
2018-07-20T08:06:37.972Z,0.30
2018-07-20T08:07:37.986Z,0.30
2018-07-20T08:08:37.983Z,0.30
2018-07-20T08:09:37.988Z,0.30
2018-07-20T08:10:37.975Z,0.30
2018-07-20T08:11:37.980Z,0.30
2018-07-20T08:12:37.979Z,0.30
2018-07-20T08:13:37.982Z,0.30
2018-07-20T08:14:38.003Z,0.30
2018-07-20T08:15:38.007Z,0.30
2018-07-20T08:16:38.014Z,0.30
2018-07-20T08:17:38.011Z,0.30
2018-07-20T08:18:38.019Z,0.40
2018-07-20T08:19:38.030Z,0.40
2018-07-20T08:20:38.030Z,0.40
2018-07-20T08:21:38.040Z,0.40
2018-07-20T08:22:38.046Z,0.40
2018-07-20T08:23:38.052Z,0.50
2018-07-20T08:24:38.059Z,0.50
2018-07-20T08:25:38.069Z,0.50
2018-07-20T08:26:38.079Z,0.50
2018-07-20T08:27:38.086Z,0.50
2018-07-20T08:28:38.106Z,0.50
2018-07-20T08:29:38.103Z,0.60
2018-07-20T08:30:38.117Z,0.70
2018-07-20T08:31:38.123Z,0.50
2018-07-20T08:32:38.125Z,0.60
2018-07-20T08:33:38.143Z,0.60
2018-07-20T08:34:38.145Z,0.70
2018-07-20T08:35:38.153Z,0.60
2018-07-20T08:36:39.120Z,0.60
2018-07-20T08:37:38.168Z,0.70
2018-07-20T08:38:38.194Z,0.70
2018-07-20T08:39:38.204Z,0.70
2018-07-20T08:40:38.196Z,0.70
2018-07-20T08:41:38.204Z,0.80
2018-07-20T08:42:38.222Z,0.70
2018-07-20T08:43:38.224Z,0.80
2018-07-20T08:44:38.229Z,0.90
2018-07-20T08:45:38.275Z,0.80
2018-07-20T08:46:38.316Z,0.80
2018-07-20T08:47:38.259Z,0.90
2018-07-20T08:48:38.290Z,0.90
2018-07-20T08:49:38.276Z,0.80
2018-07-20T08:50:38.284Z,0.80
2018-07-20T08:51:38.298Z,0.90
2018-07-20T08:52:38.310Z,0.80
2018-07-20T08:53:38.315Z,0.80
2018-07-20T08:54:38.320Z,0.80
2018-07-20T08:55:38.330Z,0.90
2018-07-20T08:56:38.339Z,0.90
2018-07-20T08:57:38.359Z,0.90
2018-07-20T08:58:40.124Z,0.90
2018-07-20T08:59:38.373Z,0.80
2018-07-20T09:00:38.376Z,0.90
2018-07-20T09:01:38.389Z,0.90
2018-07-20T09:02:38.400Z,1.00
2018-07-20T09:03:38.453Z,1.00
2018-07-20T09:04:38.414Z,1.10
2018-07-20T09:05:38.424Z,1.10
2018-07-20T09:06:38.452Z,1.10
2018-07-20T09:07:38.444Z,1.10
2018-07-20T09:08:38.452Z,1.20
2018-07-20T09:09:38.466Z,1.10
2018-07-20T09:10:38.472Z,1.20
2018-07-20T09:11:39.137Z,1.20
2018-07-20T09:12:39.144Z,1.20
2018-07-20T09:13:38.590Z,1.30
2018-07-20T09:14:38.517Z,1.30
2018-07-20T09:15:38.535Z,1.20
2018-07-20T09:16:38.539Z,1.30
2018-07-20T09:17:38.547Z,1.40
2018-07-20T09:18:38.556Z,1.40
2018-07-20T09:19:38.567Z,1.40
2018-07-20T09:20:38.606Z,1.40
2018-07-20T09:21:38.594Z,1.40
2018-07-20T09:22:38.601Z,1.50
2018-07-20T09:23:38.609Z,1.50
2018-07-20T09:24:38.618Z,1.40
2018-07-20T09:25:38.627Z,1.30
2018-07-20T09:26:38.651Z,1.40
2018-07-20T09:27:38.657Z,1.40
2018-07-20T09:28:38.665Z,1.40
2018-07-20T09:29:38.671Z,1.40
2018-07-20T09:30:38.680Z,1.40
2018-07-20T09:31:38.694Z,1.30
2018-07-20T09:32:38.703Z,1.40
2018-07-20T09:33:38.714Z,1.30
2018-07-20T09:34:38.726Z,1.40
2018-07-20T09:35:40.668Z,1.40
2018-07-20T09:36:38.752Z,1.40
2018-07-20T09:37:38.760Z,1.50
2018-07-20T09:38:38.774Z,1.50
2018-07-20T09:39:38.812Z,1.50
2018-07-20T09:40:38.812Z,1.60
2018-07-20T09:41:38.801Z,1.70
2018-07-20T09:42:38.839Z,1.80
2018-07-20T09:43:38.828Z,1.80
2018-07-20T09:44:38.836Z,1.80
2018-07-20T09:45:38.858Z,1.90
2018-07-20T09:46:38.863Z,2.00
2018-07-20T09:47:38.881Z,2.10
2018-07-20T09:48:38.898Z,2.00
2018-07-20T09:49:38.899Z,2.10
2018-07-20T09:50:38.912Z,2.20
2018-07-20T09:51:38.923Z,2.30
2018-07-20T09:52:38.932Z,2.40
2018-07-20T09:53:38.943Z,2.30
2018-07-20T09:54:38.959Z,2.20
2018-07-20T09:55:38.969Z,2.50
2018-07-20T09:56:38.979Z,2.30
2018-07-20T09:57:38.999Z,2.30
2018-07-20T09:58:39.007Z,2.80
2018-07-20T09:59:39.149Z,2.90
2018-07-20T10:00:39.030Z,2.80
2018-07-20T10:01:39.049Z,2.70
2018-07-20T10:02:39.055Z,2.60
2018-07-20T10:03:39.070Z,2.70
2018-07-20T10:04:39.084Z,3.00
2018-07-20T10:05:39.094Z,3.10
2018-07-20T10:06:39.116Z,3.00
2018-07-20T10:07:39.126Z,3.10
2018-07-20T10:08:39.134Z,3.20
2018-07-20T10:09:39.148Z,3.20
2018-07-20T10:10:39.159Z,3.20
2018-07-20T10:11:39.174Z,3.50
2018-07-20T10:12:39.221Z,3.60
2018-07-20T10:13:39.196Z,3.80
2018-07-20T10:14:39.217Z,4.00
2018-07-20T10:15:39.225Z,4.00
2018-07-20T10:16:39.250Z,4.00
2018-07-20T10:17:39.259Z,4.30
2018-07-20T10:18:39.263Z,4.40
2018-07-20T10:19:39.281Z,4.50
2018-07-20T10:20:39.292Z,4.60
2018-07-20T10:21:39.334Z,4.40
2018-07-20T10:22:39.317Z,4.40
2018-07-20T10:23:39.338Z,4.30
2018-07-20T10:24:39.347Z,4.30
2018-07-20T10:25:39.408Z,4.20
2018-07-20T10:26:39.378Z,4.30
2018-07-20T10:27:39.391Z,4.40
2018-07-20T10:28:39.402Z,4.10
2018-07-20T10:29:39.415Z,3.90
2018-07-20T10:30:39.462Z,3.60
2018-07-20T10:31:39.459Z,3.50
2018-07-20T10:32:39.456Z,3.20
2018-07-20T10:33:39.474Z,3.10
2018-07-20T10:34:39.484Z,2.70
2018-07-20T10:35:39.502Z,2.40
2018-07-20T10:36:39.556Z,2.30
2018-07-20T10:37:39.519Z,2.30
2018-07-20T10:38:39.537Z,2.30
2018-07-20T10:39:39.547Z,2.30
2018-07-20T10:40:39.565Z,2.30
2018-07-20T10:41:39.573Z,2.40
2018-07-20T10:42:39.586Z,2.40
2018-07-20T10:43:39.599Z,2.40
2018-07-20T10:44:39.614Z,2.40
2018-07-20T10:45:39.629Z,2.50
2018-07-20T10:46:39.636Z,2.50
2018-07-20T10:47:39.650Z,2.80
2018-07-20T10:48:39.662Z,3.00
2018-07-20T10:49:39.673Z,3.00
2018-07-20T10:50:39.714Z,3.20
2018-07-20T10:51:39.701Z,3.40
2018-07-20T10:52:39.717Z,3.30
2018-07-20T10:53:39.727Z,3.00
2018-07-20T10:54:39.759Z,3.20
2018-07-20T10:55:39.764Z,3.10
2018-07-20T10:56:39.767Z,2.60
2018-07-20T10:57:39.776Z,2.60
2018-07-20T10:58:39.797Z,2.50
2018-07-20T10:59:39.806Z,2.20
2018-07-20T11:00:39.820Z,2.10
2018-07-20T11:01:39.850Z,2.00
2018-07-20T11:02:39.843Z,1.70
2018-07-20T11:03:39.857Z,1.50
2018-07-20T11:04:39.867Z,1.40
2018-07-20T11:05:39.875Z,1.30
2018-07-20T11:06:39.890Z,1.30
2018-07-20T11:07:39.904Z,1.10
2018-07-20T11:08:39.911Z,1.10
2018-07-20T11:09:39.924Z,1.10
2018-07-20T11:10:39.934Z,1.20
2018-07-20T11:11:39.947Z,1.20
2018-07-20T11:12:39.955Z,1.20
2018-07-20T11:13:40.013Z,1.20
2018-07-20T11:14:39.982Z,1.20
2018-07-20T11:15:39.986Z,1.20
2018-07-20T11:16:40.007Z,1.30
2018-07-20T11:17:40.014Z,1.30
2018-07-20T11:18:40.024Z,1.40
2018-07-20T11:19:40.041Z,1.40
2018-07-20T11:20:40.043Z,1.40
2018-07-20T11:21:40.052Z,1.50
2018-07-20T11:22:40.067Z,1.40
2018-07-20T11:23:40.072Z,1.40
2018-07-20T11:24:40.089Z,1.50
2018-07-20T11:25:40.101Z,1.60
2018-07-20T11:26:40.108Z,1.60
2018-07-20T11:27:40.118Z,1.70
2018-07-20T11:28:40.125Z,1.90
2018-07-20T11:29:40.140Z,1.90
2018-07-20T11:30:40.159Z,2.10
2018-07-20T11:31:40.176Z,2.30
2018-07-20T11:32:40.177Z,2.30
2018-07-20T11:33:40.185Z,2.30
2018-07-20T11:34:40.210Z,2.30
2018-07-20T11:35:40.213Z,2.20
2018-07-20T11:36:40.221Z,2.30
2018-07-20T11:37:40.236Z,2.10
2018-07-20T11:38:40.244Z,2.10
2018-07-20T11:39:40.268Z,1.90
2018-07-20T11:40:40.272Z,2.00
2018-07-20T11:41:40.280Z,2.10
2018-07-20T11:42:40.325Z,2.00
2018-07-20T11:43:40.306Z,1.90
2018-07-20T11:44:40.315Z,1.70
2018-07-20T11:45:40.331Z,1.60
2018-07-20T11:46:40.342Z,1.60
2018-07-20T11:47:40.350Z,1.40
2018-07-20T11:48:40.368Z,1.40
2018-07-20T11:49:40.376Z,1.50
2018-07-20T11:50:40.380Z,1.40
2018-07-20T11:51:40.403Z,1.20
2018-07-20T11:52:40.424Z,1.10
2018-07-20T11:53:40.415Z,1.00
2018-07-20T11:54:40.425Z,0.90
2018-07-20T11:55:40.449Z,0.90
2018-07-20T11:56:40.456Z,0.90
2018-07-20T11:57:40.458Z,0.80
2018-07-20T11:58:40.468Z,0.90
2018-07-20T11:59:40.477Z,0.90
2018-07-20T12:00:40.488Z,0.70
2018-07-20T12:01:41.240Z,0.80
2018-07-20T12:02:40.506Z,0.70
2018-07-20T12:03:40.522Z,0.80
2018-07-20T12:04:40.552Z,0.70
2018-07-20T12:05:40.539Z,0.60
2018-07-20T12:06:40.551Z,0.60
2018-07-20T12:07:40.560Z,0.60
2018-07-20T12:08:40.567Z,0.70
2018-07-20T12:09:40.574Z,0.50
2018-07-20T12:10:40.584Z,0.60
2018-07-20T12:11:40.593Z,0.70
2018-07-20T12:12:40.627Z,0.60
2018-07-20T12:13:40.612Z,0.70
2018-07-20T12:14:40.623Z,0.80
2018-07-20T12:15:40.625Z,0.70
2018-07-20T12:16:40.693Z,0.70
2018-07-20T12:17:40.649Z,0.70
2018-07-20T12:18:40.679Z,0.80
2018-07-20T12:19:40.672Z,0.80
2018-07-20T12:20:40.679Z,0.80
2018-07-20T12:21:40.685Z,0.80
2018-07-20T12:22:40.712Z,0.80
2018-07-20T12:23:40.713Z,0.80
2018-07-20T12:24:40.728Z,0.80
2018-07-20T12:25:40.716Z,0.90
2018-07-20T12:26:40.732Z,0.80
2018-07-20T12:27:40.734Z,0.80
2018-07-20T12:28:40.756Z,0.90
2018-07-20T12:29:40.758Z,0.80
2018-07-20T12:30:40.766Z,0.80
2018-07-20T12:31:40.777Z,0.80
2018-07-20T12:32:40.786Z,0.80
2018-07-20T12:33:40.792Z,0.80
2018-07-20T12:34:40.804Z,0.80
2018-07-20T12:35:40.813Z,0.80
2018-07-20T12:36:40.844Z,0.80
2018-07-20T12:37:40.827Z,0.70
2018-07-20T12:38:40.838Z,0.70
2018-07-20T12:39:40.851Z,0.70
2018-07-20T12:40:40.860Z,0.80
2018-07-20T12:41:40.867Z,0.80
2018-07-20T12:42:40.908Z,0.80
2018-07-20T12:43:40.885Z,0.80
2018-07-20T12:44:40.933Z,0.80
2018-07-20T12:45:40.910Z,0.80
2018-07-20T12:46:40.980Z,0.80
2018-07-20T12:47:40.921Z,0.70
2018-07-20T12:48:40.958Z,0.70
2018-07-20T12:49:40.945Z,0.70
2018-07-20T12:50:40.953Z,0.60
2018-07-20T12:51:40.964Z,0.50
2018-07-20T12:52:40.969Z,0.50
2018-07-20T12:53:40.984Z,0.50
2018-07-20T12:54:41.000Z,0.60
2018-07-20T12:55:41.004Z,0.50
2018-07-20T12:56:41.001Z,0.60
2018-07-20T12:57:41.017Z,0.60
2018-07-20T12:58:41.100Z,0.60
2018-07-20T12:59:41.043Z,0.60
2018-07-20T13:00:41.034Z,0.60
2018-07-20T13:01:41.108Z,0.70
2018-07-20T13:02:41.113Z,0.80
2018-07-20T13:03:41.074Z,0.80
2018-07-20T13:04:41.088Z,0.90
2018-07-20T13:05:41.081Z,0.90
2018-07-20T13:06:41.095Z,0.90
2018-07-20T13:07:41.101Z,0.80
2018-07-20T13:08:41.108Z,0.90
2018-07-20T13:09:41.122Z,0.90
2018-07-20T13:10:41.131Z,0.90
2018-07-20T13:11:41.137Z,1.00
2018-07-20T13:12:41.151Z,0.90
2018-07-20T13:13:41.158Z,1.00
2018-07-20T13:14:41.190Z,1.00
2018-07-20T13:15:41.178Z,1.00
2018-07-20T13:16:41.192Z,0.90
2018-07-20T13:17:41.196Z,1.00
2018-07-20T13:18:41.205Z,0.90
2018-07-20T13:19:41.217Z,0.80
2018-07-20T13:20:41.222Z,0.70
2018-07-20T13:21:41.235Z,0.80
2018-07-20T13:22:41.251Z,0.70
2018-07-20T13:23:41.264Z,0.70
2018-07-20T13:24:41.263Z,0.70